createdAt,value
2022-10-05T00:01:00.245Z,8.10
2022-10-05T00:03:33.639Z,9.20
2022-10-05T00:06:00.673Z,8.85
2022-10-05T00:08:32.203Z,8.82
2022-10-05T00:10:59.702Z,8.70
2022-10-05T00:13:29.759Z,9.55
2022-10-05T00:16:09.612Z,10.02
2022-10-05T00:18:37.092Z,9.60
2022-10-05T00:21:19.746Z,9.93
2022-10-05T00:23:47.145Z,10.40
2022-10-05T00:26:20.183Z,8.75
2022-10-05T00:28:47.919Z,8.82
2022-10-05T00:31:36.201Z,10.02
2022-10-05T00:34:03.460Z,11.48
2022-10-05T00:36:30.449Z,10.95
2022-10-05T00:38:57.388Z,12.13
2022-10-05T00:41:42.536Z,13.48
2022-10-05T00:44:28.052Z,12.00
2022-10-05T00:47:04.553Z,11.50
2022-10-05T00:49:57.508Z,12.50
2022-10-05T00:53:02.768Z,11.60
2022-10-05T00:55:38.464Z,11.82
2022-10-05T00:58:52.576Z,12.00
2022-10-05T01:01:30.188Z,11.35
2022-10-05T01:04:13.602Z,12.25
2022-10-05T01:06:55.535Z,13.02
2022-10-05T01:09:45.688Z,12.05
2022-10-05T01:12:37.830Z,11.68
2022-10-05T01:15:21.978Z,12.13
2022-10-05T01:17:58.349Z,13.18
2022-10-05T01:20:39.665Z,12.23
2022-10-05T01:23:32.588Z,10.43
2022-10-05T01:26:17.521Z,10.32
2022-10-05T01:28:52.850Z,10.00
2022-10-05T01:31:19.825Z,10.20
2022-10-05T01:33:56.552Z,9.60
2022-10-05T01:36:37.256Z,10.40
2022-10-05T01:39:43.151Z,9.95
2022-10-05T01:42:22.068Z,7.25
2022-10-05T01:44:55.433Z,8.63
2022-10-05T01:47:33.443Z,6.95
2022-10-05T01:50:07.103Z,7.63
2022-10-05T01:52:51.150Z,7.10
2022-10-05T01:56:03.784Z,6.88
2022-10-05T01:58:50.892Z,7.28
2022-10-05T02:01:20.412Z,7.80
2022-10-05T02:03:57.620Z,8.18
2022-10-05T02:06:28.094Z,7.72
2022-10-05T02:09:26.809Z,7.65
2022-10-05T02:12:07.074Z,8.60
2022-10-05T02:14:42.063Z,8.63
2022-10-05T02:17:17.628Z,7.90
2022-10-05T02:19:56.170Z,7.38
2022-10-05T02:22:37.394Z,6.60
2022-10-05T02:25:13.578Z,7.47
2022-10-05T02:28:13.114Z,7.83
2022-10-05T02:31:07.356Z,6.97
2022-10-05T02:33:36.036Z,7.40
2022-10-05T02:36:17.988Z,7.20
2022-10-05T02:38:52.879Z,7.47
2022-10-05T02:41:42.403Z,8.55
2022-10-05T02:44:22.087Z,8.25
2022-10-05T02:47:02.329Z,7.88
2022-10-05T02:49:44.044Z,8.45
2022-10-05T02:52:22.559Z,6.60
2022-10-05T02:55:26.390Z,6.97
2022-10-05T02:58:03.808Z,6.95
2022-10-05T03:00:37.016Z,6.93
2022-10-05T03:03:16.673Z,6.35
2022-10-05T03:06:03.831Z,6.93
2022-10-05T03:08:31.683Z,6.35
2022-10-05T03:11:18.474Z,6.47
2022-10-05T03:14:13.595Z,6.97
2022-10-05T03:17:08.568Z,5.75
2022-10-05T03:19:37.062Z,6.50
2022-10-05T03:22:29.509Z,6.90
2022-10-05T03:25:36.222Z,5.78
2022-10-05T03:28:22.800Z,5.10
2022-10-05T03:31:23.649Z,6.90
2022-10-05T03:34:00.859Z,5.88
2022-10-05T03:36:49.686Z,6.38
2022-10-05T03:39:38.714Z,6.22
2022-10-05T03:42:11.660Z,7.43
2022-10-05T03:44:45.056Z,5.97
2022-10-05T03:47:43.495Z,6.75
2022-10-05T03:50:34.271Z,6.90
2022-10-05T03:53:11.056Z,6.53
2022-10-05T03:55:48.106Z,6.55
2022-10-05T03:58:29.530Z,6.32
2022-10-05T04:01:03.828Z,7.57
2022-10-05T04:03:38.235Z,6.63
2022-10-05T04:06:15.682Z,6.47
2022-10-05T04:08:50.862Z,6.75
2022-10-05T04:11:26.452Z,7.53
2022-10-05T04:14:16.015Z,6.90
2022-10-05T04:16:49.806Z,6.80
2022-10-05T04:19:24.969Z,6.43
2022-10-05T04:22:06.401Z,6.80
2022-10-05T04:24:39.874Z,7.40
2022-10-05T04:27:36.294Z,7.35
2022-10-05T04:30:05.483Z,7.13
2022-10-05T04:32:45.903Z,7.53
2022-10-05T04:35:31.879Z,7.13
2022-10-05T04:38:12.044Z,8.68
2022-10-05T04:40:51.776Z,8.05
2022-10-05T04:43:32.582Z,8.45
2022-10-05T04:46:05.350Z,8.23
2022-10-05T04:48:50.313Z,8.27
2022-10-05T04:51:26.546Z,7.97
2022-10-05T04:53:59.129Z,7.90
2022-10-05T04:56:32.449Z,7.70
2022-10-05T04:59:20.161Z,8.75
2022-10-05T05:02:17.093Z,7.97
2022-10-05T05:04:57.735Z,7.97
2022-10-05T05:07:53.911Z,9.27
2022-10-05T05:10:39.772Z,9.40
2022-10-05T05:13:29.927Z,9.65
2022-10-05T05:16:05.093Z,10.82
2022-10-05T05:18:42.671Z,9.68
2022-10-05T05:21:31.175Z,9.75
2022-10-05T05:24:03.235Z,11.57
2022-10-05T05:26:55.775Z,11.20
2022-10-05T05:29:49.682Z,10.57
2022-10-05T05:32:45.991Z,9.27
2022-10-05T05:35:36.828Z,9.43
2022-10-05T05:38:37.679Z,9.88
2022-10-05T05:41:12.339Z,10.95
2022-10-05T05:43:53.653Z,9.65
2022-10-05T05:46:58.392Z,9.23
2022-10-05T05:49:32.280Z,9.48
2022-10-05T05:52:13.671Z,9.70
2022-10-05T05:55:29.688Z,10.35
2022-10-05T05:58:04.509Z,9.15
2022-10-05T06:01:20.209Z,10.02
2022-10-05T06:04:01.653Z,9.50
2022-10-05T06:06:34.982Z,11.60
2022-10-05T06:09:15.762Z,8.63
2022-10-05T06:12:21.512Z,8.63
2022-10-05T06:14:55.297Z,8.25
2022-10-05T06:17:32.927Z,9.25
2022-10-05T06:20:05.446Z,8.48
2022-10-05T06:22:42.538Z,10.13
2022-10-05T06:25:12.463Z,8.45
2022-10-05T06:28:08.436Z,8.20
2022-10-05T06:31:09.080Z,8.77
2022-10-05T06:33:50.764Z,8.40
2022-10-05T06:36:38.961Z,7.88
2022-10-05T06:39:43.701Z,8.35
2022-10-05T06:42:23.099Z,8.20
2022-10-05T06:45:22.386Z,8.35
2022-10-05T06:48:39.296Z,8.00
2022-10-05T06:51:52.908Z,8.20
2022-10-05T06:54:35.243Z,8.45
2022-10-05T06:57:21.728Z,8.55
2022-10-05T07:00:02.692Z,7.78
2022-10-05T07:02:53.813Z,7.97
2022-10-05T07:05:45.453Z,7.40
2022-10-05T07:08:24.938Z,6.60
2022-10-05T07:11:43.017Z,6.78
2022-10-05T07:14:36.185Z,6.35
2022-10-05T07:17:27.525Z,7.25
2022-10-05T07:20:09.225Z,6.75
2022-10-05T07:23:13.873Z,6.20
2022-10-05T07:25:53.373Z,6.88
2022-10-05T07:28:47.639Z,6.00
2022-10-05T07:31:40.776Z,5.65
2022-10-05T07:34:44.141Z,7.18
2022-10-05T07:37:38.647Z,6.05
2022-10-05T07:40:18.201Z,7.68
2022-10-05T07:43:22.455Z,7.45
2022-10-05T07:46:03.684Z,7.20
2022-10-05T07:49:00.228Z,7.28
2022-10-05T07:51:36.484Z,8.18
2022-10-05T07:54:57.157Z,7.07
2022-10-05T07:57:38.429Z,7.60
2022-10-05T08:00:20.388Z,6.32
2022-10-05T08:02:53.411Z,5.75
2022-10-05T08:05:24.355Z,5.95
2022-10-05T08:08:16.683Z,5.55
2022-10-05T08:10:59.767Z,5.50
2022-10-05T08:13:52.226Z,4.90
2022-10-05T08:16:19.979Z,5.47
2022-10-05T08:19:06.830Z,5.50
2022-10-05T08:21:45.123Z,16.87
2022-10-05T08:24:21.296Z,9.68
2022-10-05T08:27:04.658Z,5.40
2022-10-05T08:29:34.620Z,5.75
2022-10-05T08:32:12.716Z,4.88
2022-10-05T08:34:52.609Z,4.95
2022-10-05T08:37:22.587Z,7.65
2022-10-05T08:40:22.644Z,7.03
2022-10-05T08:43:01.583Z,6.82
2022-10-05T08:45:31.470Z,8.95
2022-10-05T08:48:36.177Z,9.15
2022-10-05T08:51:48.736Z,9.57
2022-10-05T08:54:34.817Z,8.93
2022-10-05T08:57:22.815Z,7.60
2022-10-05T09:00:20.736Z,8.57
2022-10-05T09:03:08.868Z,7.28
2022-10-05T09:06:06.306Z,6.32
2022-10-05T09:09:12.759Z,7.20
2022-10-05T09:11:46.198Z,7.10
2022-10-05T09:14:34.179Z,6.25
2022-10-05T09:17:39.928Z,6.68
2022-10-05T09:20:25.364Z,6.30
2022-10-05T09:23:05.212Z,6.40
2022-10-05T09:25:44.100Z,5.35
2022-10-05T09:28:23.047Z,4.93
2022-10-05T09:31:12.791Z,3.72
2022-10-05T09:34:00.612Z,3.17
2022-10-05T09:36:27.557Z,3.08
2022-10-05T09:38:57.378Z,3.63
2022-10-05T09:41:30.074Z,3.97
2022-10-05T09:44:11.987Z,3.60
2022-10-05T09:46:57.625Z,3.40
2022-10-05T09:49:55.404Z,3.53
2022-10-05T09:52:48.391Z,3.50
2022-10-05T09:55:39.343Z,3.55
2022-10-05T09:58:37.031Z,2.80
2022-10-05T10:01:33.710Z,2.97
2022-10-05T10:04:08.163Z,3.27
2022-10-05T10:07:25.914Z,2.83
2022-10-05T10:10:31.092Z,3.42
2022-10-05T10:13:31.175Z,4.35
2022-10-05T10:16:00.780Z,3.40
2022-10-05T10:18:27.777Z,4.00
2022-10-05T10:21:49.070Z,2.90
2022-10-05T10:24:44.226Z,3.25
2022-10-05T10:27:20.474Z,6.93
2022-10-05T10:30:14.015Z,7.75
2022-10-05T10:32:54.451Z,3.80
2022-10-05T10:35:37.340Z,3.47
2022-10-05T10:38:23.816Z,5.03
2022-10-05T10:41:14.477Z,2.93
2022-10-05T10:43:41.728Z,5.43
2022-10-05T10:46:29.965Z,3.78
2022-10-05T10:49:33.656Z,5.70
2022-10-05T10:52:31.316Z,6.28
2022-10-05T10:55:04.511Z,5.13
2022-10-05T10:57:52.798Z,6.10
2022-10-05T11:00:38.204Z,6.05
2022-10-05T11:03:24.110Z,4.60
2022-10-05T11:06:17.254Z,4.47
2022-10-05T11:09:21.322Z,3.47
2022-10-05T11:12:12.879Z,5.97
2022-10-05T11:14:48.636Z,5.65
2022-10-05T11:17:18.348Z,5.18
2022-10-05T11:20:04.364Z,5.35
2022-10-05T11:22:54.632Z,4.97
2022-10-05T11:25:58.877Z,5.20
2022-10-05T11:29:01.141Z,8.00
2022-10-05T11:31:50.414Z,5.60
2022-10-05T11:34:27.312Z,5.72
2022-10-05T11:37:24.868Z,4.72
2022-10-05T11:40:10.178Z,3.75
2022-10-05T11:43:00.371Z,3.47
2022-10-05T11:45:46.610Z,3.38
2022-10-05T11:49:15.469Z,3.15
2022-10-05T11:51:47.692Z,2.88
2022-10-05T11:54:17.707Z,3.13
2022-10-05T11:56:54.750Z,2.80
2022-10-05T11:59:39.628Z,3.22
2022-10-05T12:02:48.278Z,4.78
2022-10-05T12:05:21.439Z,2.92
2022-10-05T12:08:30.064Z,3.15
2022-10-05T12:11:33.987Z,3.08
2022-10-05T12:14:10.638Z,5.63
2022-10-05T12:16:50.982Z,4.60
2022-10-05T12:19:22.109Z,3.58
2022-10-05T12:22:10.058Z,5.63
2022-10-05T12:24:36.977Z,6.82
2022-10-05T12:27:32.374Z,6.50
2022-10-05T12:30:05.932Z,5.85
2022-10-05T12:32:41.632Z,5.43
2022-10-05T12:35:43.964Z,4.25
2022-10-05T12:38:25.039Z,5.53
2022-10-05T12:41:11.135Z,6.13
2022-10-05T12:43:53.929Z,5.60
2022-10-05T12:46:55.557Z,5.30
2022-10-05T12:49:50.004Z,5.63
2022-10-05T12:52:37.659Z,5.10
2022-10-05T12:55:22.042Z,2.70
2022-10-05T12:58:05.815Z,3.58
2022-10-05T13:00:38.047Z,4.88
2022-10-05T13:03:44.944Z,5.88
2022-10-05T13:06:55.767Z,6.00
2022-10-05T13:09:40.345Z,5.88
2022-10-05T13:12:27.054Z,5.78
2022-10-05T13:15:08.776Z,5.88
2022-10-05T13:17:42.675Z,3.90
2022-10-05T13:20:29.898Z,4.05
2022-10-05T13:23:34.981Z,4.88
2022-10-05T13:26:07.896Z,4.43
2022-10-05T13:28:58.630Z,3.25
2022-10-05T13:31:33.126Z,5.25
2022-10-05T13:34:18.022Z,3.58
2022-10-05T13:37:23.323Z,4.78
2022-10-05T13:40:01.179Z,2.50
2022-10-05T13:42:40.326Z,4.25
2022-10-05T13:45:20.307Z,3.83
2022-10-05T13:47:58.814Z,2.50
2022-10-05T13:50:33.623Z,4.32
2022-10-05T13:53:24.800Z,2.65
2022-10-05T13:56:06.927Z,3.05
2022-10-05T13:58:45.370Z,3.00
2022-10-05T14:01:43.619Z,3.75
2022-10-05T14:04:21.232Z,3.67
2022-10-05T14:06:49.623Z,3.38
2022-10-05T14:09:30.396Z,3.65
2022-10-05T14:12:03.183Z,4.15
2022-10-05T14:14:42.310Z,3.50
2022-10-05T14:17:35.756Z,4.63
2022-10-05T14:20:26.035Z,4.97
2022-10-05T14:23:01.029Z,5.60
2022-10-05T14:25:30.215Z,2.90
2022-10-05T14:28:12.414Z,2.90
2022-10-05T14:30:40.984Z,5.20
2022-10-05T14:33:17.332Z,4.30
2022-10-05T14:35:49.180Z,4.78
2022-10-05T14:38:30.015Z,3.65
2022-10-05T14:41:17.721Z,3.10
2022-10-05T14:44:13.442Z,3.58
2022-10-05T14:47:12.048Z,4.10
2022-10-05T14:50:16.228Z,3.97
2022-10-05T14:53:17.415Z,3.30
2022-10-05T14:56:09.172Z,3.13
2022-10-05T14:58:55.974Z,5.75
2022-10-05T15:01:31.832Z,7.13
2022-10-05T15:04:21.428Z,7.65
2022-10-05T15:07:06.344Z,5.90
2022-10-05T15:09:52.073Z,3.67
2022-10-05T15:12:29.552Z,4.45
2022-10-05T15:15:05.165Z,3.45
2022-10-05T15:17:52.749Z,3.30
2022-10-05T15:20:29.471Z,4.55
2022-10-05T15:23:11.484Z,3.22
2022-10-05T15:26:06.298Z,3.85
2022-10-05T15:28:54.724Z,5.38
2022-10-05T15:31:25.932Z,5.38
2022-10-05T15:34:08.179Z,6.40
2022-10-05T15:36:52.613Z,5.90
2022-10-05T15:39:36.428Z,5.72
2022-10-05T15:42:17.424Z,5.10
2022-10-05T15:44:52.333Z,4.20
2022-10-05T15:47:54.814Z,4.82
2022-10-05T15:50:35.672Z,6.70
2022-10-05T15:53:17.835Z,5.97
2022-10-05T15:55:56.634Z,6.20
2022-10-05T15:58:31.498Z,7.13
2022-10-05T16:01:11.363Z,3.88
2022-10-05T16:03:49.369Z,3.35
2022-10-05T16:06:56.728Z,4.22
2022-10-05T16:09:34.575Z,6.17
2022-10-05T16:12:21.534Z,6.30
2022-10-05T16:15:00.694Z,5.40
2022-10-05T16:17:47.475Z,5.15
2022-10-05T16:20:20.858Z,2.90
2022-10-05T16:23:29.998Z,4.20
2022-10-05T16:26:20.596Z,2.72
2022-10-05T16:28:47.702Z,5.82
2022-10-05T16:31:31.267Z,2.80
2022-10-05T16:34:10.386Z,4.10
2022-10-05T16:37:28.462Z,4.18
2022-10-05T16:40:21.537Z,6.13
2022-10-05T16:43:28.382Z,8.45
2022-10-05T16:46:15.936Z,7.70
2022-10-05T16:51:23.426Z,8.75
2022-10-05T16:54:02.240Z,7.57
2022-10-05T16:56:39.462Z,6.18
2022-10-05T16:59:24.676Z,6.15
2022-10-05T17:02:15.272Z,6.53
2022-10-05T17:05:01.821Z,5.80
2022-10-05T17:07:49.806Z,6.80
2022-10-05T17:10:38.010Z,7.97
2022-10-05T17:13:37.615Z,8.05
2022-10-05T17:16:29.442Z,8.43
2022-10-05T17:19:21.347Z,7.45
2022-10-05T17:22:07.933Z,6.28
2022-10-05T17:24:41.833Z,6.17
2022-10-05T17:27:26.123Z,6.20
2022-10-05T17:29:55.405Z,5.78
2022-10-05T17:32:22.353Z,6.80
2022-10-05T17:35:01.435Z,6.55
2022-10-05T17:37:28.425Z,4.93
2022-10-05T17:39:57.634Z,5.25
2022-10-05T17:42:30.247Z,9.23
2022-10-05T17:45:20.890Z,8.88
2022-10-05T17:48:04.261Z,7.47
2022-10-05T17:51:09.781Z,7.15
2022-10-05T17:54:04.164Z,7.38
2022-10-05T17:56:53.424Z,8.20
2022-10-05T17:59:46.331Z,7.10
2022-10-05T18:02:23.034Z,5.97
2022-10-05T18:05:14.623Z,8.40
2022-10-05T18:07:44.173Z,5.78
2022-10-05T18:10:16.997Z,6.60
2022-10-05T18:13:11.361Z,6.03
2022-10-05T18:15:45.326Z,6.40
2022-10-05T18:18:44.031Z,6.57
2022-10-05T18:21:13.866Z,6.40
2022-10-05T18:24:02.895Z,6.57
2022-10-05T18:26:36.956Z,5.95
2022-10-05T18:29:39.023Z,9.50
2022-10-05T18:32:23.570Z,11.70
2022-10-05T18:35:01.976Z,11.02
2022-10-05T18:37:50.664Z,10.02
2022-10-05T18:40:26.682Z,11.27
2022-10-05T18:43:06.576Z,13.00
2022-10-05T18:45:44.240Z,11.73
2022-10-05T18:48:30.051Z,9.85
2022-10-05T18:51:27.405Z,5.70
2022-10-05T18:53:54.591Z,6.82
2022-10-05T18:56:30.283Z,7.57
2022-10-05T18:59:27.712Z,7.78
2022-10-05T19:02:20.329Z,9.52
2022-10-05T19:05:29.305Z,10.82
2022-10-05T19:08:20.726Z,10.60
2022-10-05T19:10:55.662Z,11.13
2022-10-05T19:13:25.525Z,8.00
2022-10-05T19:16:06.888Z,8.68
2022-10-05T19:19:01.331Z,8.45
2022-10-05T19:21:39.594Z,7.68
2022-10-05T19:24:25.047Z,10.07
2022-10-05T19:27:17.178Z,9.57
2022-10-05T19:29:56.218Z,11.13
2022-10-05T19:32:30.544Z,11.52
2022-10-05T19:35:13.198Z,10.70
2022-10-05T19:38:00.813Z,9.70
2022-10-05T19:40:36.354Z,10.43
2022-10-05T19:43:19.133Z,12.18
2022-10-05T19:46:19.018Z,14.35
2022-10-05T19:48:53.464Z,16.92
2022-10-05T19:51:36.124Z,17.02
2022-10-05T19:54:16.466Z,14.77
2022-10-05T19:56:50.218Z,14.60
2022-10-05T19:59:24.689Z,17.20
2022-10-05T20:01:57.355Z,31.45
2022-10-05T20:04:41.018Z,45.92
2022-10-05T20:07:17.263Z,22.40
2022-10-05T20:09:59.520Z,20.43
2022-10-05T20:12:54.698Z,20.65
2022-10-05T20:15:52.121Z,13.45
2022-10-05T20:18:58.708Z,11.85
2022-10-05T20:21:45.977Z,12.70
2022-10-05T20:24:20.461Z,10.63
2022-10-05T20:27:15.156Z,13.52
2022-10-05T20:29:44.858Z,18.15
2022-10-05T20:32:18.099Z,11.70
2022-10-05T20:34:47.215Z,11.52
2022-10-05T20:37:16.684Z,13.40
2022-10-05T20:39:43.823Z,11.95
2022-10-05T20:42:11.254Z,11.57
2022-10-05T20:44:38.603Z,10.23
2022-10-05T20:47:09.648Z,9.35
2022-10-05T20:49:38.533Z,9.13
2022-10-05T20:52:06.750Z,9.50
2022-10-05T20:54:33.848Z,8.68
2022-10-05T20:57:00.833Z,10.02
2022-10-05T20:59:27.831Z,9.20
2022-10-05T21:01:54.984Z,9.85
2022-10-05T21:04:24.580Z,8.60
2022-10-05T21:06:52.961Z,8.77
2022-10-05T21:09:21.618Z,9.80
2022-10-05T21:11:50.353Z,8.88
2022-10-05T21:14:17.425Z,10.57
2022-10-05T21:16:45.985Z,9.25
2022-10-05T21:19:14.454Z,9.65
2022-10-05T21:21:43.296Z,8.27
2022-10-05T21:24:13.925Z,8.52
2022-10-05T21:26:41.839Z,7.38
2022-10-05T21:29:12.575Z,8.43
2022-10-05T21:31:40.512Z,9.38
2022-10-05T21:34:07.906Z,7.65
2022-10-05T21:36:35.247Z,8.30
2022-10-05T21:39:02.267Z,9.40
2022-10-05T21:41:29.350Z,10.10
2022-10-05T21:43:56.332Z,12.00
2022-10-05T21:46:27.607Z,7.75
2022-10-05T21:48:55.955Z,8.70
2022-10-05T21:51:26.389Z,8.25
2022-10-05T21:54:03.653Z,7.78
2022-10-05T21:56:37.097Z,6.18
2022-10-05T21:59:09.284Z,7.57
2022-10-05T22:01:37.155Z,6.15
2022-10-05T22:04:06.874Z,5.97
2022-10-05T22:06:36.645Z,6.38
2022-10-05T22:09:06.015Z,6.85
2022-10-05T22:11:34.269Z,7.30
2022-10-05T22:14:04.257Z,7.72
2022-10-05T22:16:34.941Z,6.10
2022-10-05T22:19:05.286Z,5.97
2022-10-05T22:21:34.427Z,6.32
2022-10-05T22:24:02.804Z,8.88
2022-10-05T22:26:30.124Z,8.02
2022-10-05T22:28:57.224Z,7.20
2022-10-05T22:31:24.516Z,7.65
2022-10-05T22:33:51.575Z,7.25
2022-10-05T22:36:19.570Z,7.10
2022-10-05T22:38:47.725Z,7.93
2022-10-05T22:41:18.448Z,7.13
2022-10-05T22:43:50.188Z,7.72
2022-10-05T22:46:18.096Z,8.23
2022-10-05T22:48:45.074Z,7.70
2022-10-05T22:51:12.136Z,7.53
2022-10-05T22:53:39.175Z,7.72
2022-10-05T22:56:09.048Z,7.00
2022-10-05T22:58:36.704Z,8.13
2022-10-05T23:01:05.929Z,8.00
2022-10-05T23:03:33.545Z,8.65
2022-10-05T23:06:03.679Z,9.35
2022-10-05T23:08:32.259Z,9.75
2022-10-05T23:11:10.630Z,9.05
2022-10-05T23:13:38.107Z,7.40
2022-10-05T23:18:50.631Z,6.93
2022-10-05T23:21:18.889Z,10.98
2022-10-05T23:23:49.059Z,8.07
2022-10-05T23:26:16.996Z,9.10
2022-10-05T23:28:48.058Z,11.85
2022-10-05T23:31:17.481Z,10.10
2022-10-05T23:33:44.715Z,9.20
2022-10-05T23:36:21.970Z,8.00
2022-10-05T23:38:49.428Z,9.00
2022-10-05T23:41:17.205Z,8.65
2022-10-05T23:43:44.201Z,9.50
2022-10-05T23:46:11.993Z,7.50
2022-10-05T23:48:39.287Z,6.65
2022-10-05T23:51:08.185Z,8.20
2022-10-05T23:53:35.552Z,8.10
2022-10-05T23:56:02.721Z,7.57
2022-10-05T23:58:30.036Z,7.80
